Time;durP1;ratioP1;P1;durP2;ratioP2;P2;SDS_P1;SDS_P2;PMS_P1;PMS_P2;Temp;Humidity;BMP_temperature;BMP_pressure;BME280_temperature;BME280_humidity;BME280_pressure;Samples;Min_cycle;Max_cycle;Signal;HPM_P1;HPM_P2
2023/06/26 00:00:48;;;;;;;5.47;3.67;;;;;;;21.15;78.31;100877.97;5011044;28;20034;-89
2023/06/26 00:03:15;;;;;;;6.70;4.13;;;;;;;21.25;77.37;100880.63;4994968;28;20113;-91
2023/06/26 00:05:41;;;;;;;5.30;4.00;;;;;;;21.13;78.12;100859.66;4995078;28;20026;-91
2023/06/26 00:08:07;;;;;;;4.25;3.42;;;;;;;21.14;77.25;100871.06;5011452;28;20026;-90
2023/06/26 00:10:32;;;;;;;4.93;3.30;;;;;;;21.23;77.72;100879.91;4995508;28;20026;-90
2023/06/26 00:12:58;;;;;;;5.18;3.53;;;;;;;21.19;77.67;100876.72;5011205;28;20484;-91
2023/06/26 00:15:24;;;;;;;4.30;3.40;;;;;;;21.14;77.85;100868.44;4994654;28;20396;-93
2023/06/26 00:17:50;;;;;;;8.45;3.63;;;;;;;21.13;77.88;100870.19;5011465;28;20022;-92
2023/06/26 00:20:17;;;;;;;4.80;3.60;;;;;;;21.15;77.42;100870.91;4994937;28;20014;-90
2023/06/26 00:22:43;;;;;;;4.38;3.40;;;;;;;21.13;77.94;100853.59;4995173;28;20026;-91
2023/06/26 00:25:08;;;;;;;7.22;3.83;;;;;;;21.17;78.18;100870.78;5011598;28;20053;-91
2023/06/26 00:27:34;;;;;;;5.15;3.10;;;;;;;21.15;77.89;100859.56;5014957;28;20026;-90
2023/06/26 00:29:59;;;;;;;5.10;3.75;;;;;;;21.15;78.34;100854.31;4998777;28;20472;-90
2023/06/26 00:32:25;;;;;;;6.68;3.70;;;;;;;21.04;78.24;100854.41;4998845;28;20378;-93
2023/06/26 00:34:50;;;;;;;7.97;4.38;;;;;;;21.04;78.75;100857.03;4998310;28;20017;-89
2023/06/26 00:37:15;;;;;;;4.72;3.50;;;;;;;21.00;78.58;100863.53;4998672;28;20056;-90
2023/06/26 00:39:41;;;;;;;6.00;3.60;;;;;;;21.00;78.69;100860.91;4998445;28;20025;-90
2023/06/26 00:42:07;;;;;;;5.22;3.38;;;;;;;20.96;78.60;100859.53;4998589;28;20036;-91
2023/06/26 00:44:32;;;;;;;9.38;3.40;;;;;;;20.94;78.64;100857.03;4998500;28;20489;-90
2023/06/26 00:46:58;;;;;;;8.02;3.42;;;;;;;21.00;78.69;100858.28;4998507;28;20030;-90
2023/06/26 00:49:23;;;;;;;5.97;3.95;;;;;;;21.02;78.86;100864.25;5014246;28;20108;-92
2023/06/26 00:51:49;;;;;;;6.07;3.05;;;;;;;20.96;78.67;100852.47;4998357;28;20026;-90
2023/06/26 00:54:19;;;;;;;5.00;3.22;;;;;;;20.98;79.04;100862.84;5014765;28;20066;-90
2023/06/26 00:56:46;;;;;;;6.07;3.17;;;;;;;21.02;78.32;100864.25;5014529;28;20475;-92
2023/06/26 00:59:11;;;;;;;4.75;3.22;;;;;;;20.98;78.76;100855.78;4998070;28;20029;-94
2023/06/26 01:01:37;;;;;;;4.97;3.70;;;;;;;21.03;78.79;100864.09;4997939;28;20380;-90
2023/06/26 01:04:02;;;;;;;8.95;3.53;;;;;;;21.03;78.89;100864.09;5014161;28;20032;-90
2023/06/26 01:06:29;;;;;;;4.75;3.20;;;;;;;20.90;78.57;100831.97;5014353;28;20120;-91
2023/06/26 01:08:54;;;;;;;4.85;3.63;;;;;;;21.11;78.37;100866.88;4998126;28;20026;-92
2023/06/26 01:11:20;;;;;;;5.43;3.58;;;;;;;21.07;78.61;100860.25;5014303;28;20060;-91
2023/06/26 01:13:45;;;;;;;5.38;3.67;;;;;;;21.01;78.84;100855.50;4998272;28;20104;-91
2023/06/26 01:16:11;;;;;;;6.65;3.80;;;;;;;20.89;79.29;100830.31;5014740;28;20467;-91
2023/06/26 01:18:37;;;;;;;6.07;3.45;;;;;;;20.99;78.79;100852.19;4997532;28;20022;-91
2023/06/26 01:21:04;;;;;;;5.95;4.28;;;;;;;20.90;78.95;100845.94;5014274;28;20022;-90
2023/06/26 01:23:50;;;;;;;6.90;4.30;;;;;;;20.95;79.16;100852.63;5014302;28;20030;-92
2023/06/26 01:26:18;;;;;;;6.07;3.50;;;;;;;20.92;79.38;100854.53;4990391;28;20173;-92
2023/06/26 01:28:43;;;;;;;5.65;3.38;;;;;;;20.92;79.20;100857.16;4997990;28;20032;-90
2023/06/26 01:31:09;;;;;;;5.28;3.83;;;;;;;20.80;79.43;100837.22;5013992;28;20033;-91
2023/06/26 01:33:34;;;;;;;4.72;3.60;;;;;;;20.92;79.32;100854.53;4997704;28;20026;-91
2023/06/26 01:36:00;;;;;;;4.93;3.20;;;;;;;21.04;79.00;100857.03;4997606;28;20391;-91
2023/06/26 01:38:26;;;;;;;4.38;3.30;;;;;;;21.02;79.27;100862.44;4997026;28;20099;-93
2023/06/26 01:40:51;;;;;;;4.75;3.28;;;;;;;21.01;78.95;100849.44;4997269;28;20476;-90
2023/06/26 01:43:46;;;;;;;4.40;3.22;;;;;;;21.05;78.84;100849.03;4997452;28;20087;-91
2023/06/26 01:46:18;;;;;;;4.13;3.13;;;;;;;21.04;78.72;100847.38;5013670;28;20057;-91
2023/06/26 01:48:55;;;;;;;4.03;3.10;;;;;;;21.04;78.84;100846.50;5013660;28;20037;-91
2023/06/26 01:51:21;;;;;;;4.38;3.28;;;;;;;21.13;78.61;100850.94;5013750;28;20029;-92
2023/06/26 01:53:49;;;;;;;5.18;3.22;;;;;;;21.15;78.90;100849.03;5013795;28;20037;-92
2023/06/26 01:56:16;;;;;;;4.10;3.30;;;;;;;21.15;78.77;100856.94;5013637;28;20032;-90
2023/06/26 01:58:43;;;;;;;4.32;3.10;;;;;;;21.18;78.30;100856.66;5013489;28;20030;-91
2023/06/26 02:01:09;;;;;;;4.72;3.40;;;;;;;21.15;78.82;100852.50;5013200;28;20030;-93
2023/06/26 02:03:35;;;;;;;5.43;3.78;;;;;;;21.14;78.84;100850.00;5013309;28;20099;-91
2023/06/26 02:06:00;;;;;;;7.07;4.43;;;;;;;21.14;79.13;100857.91;5013512;28;20021;-90
2023/06/26 02:08:25;;;;;;;6.00;4.20;;;;;;;21.09;78.90;100853.03;4996874;28;20109;-91
2023/06/26 02:10:51;;;;;;;6.10;4.40;;;;;;;21.15;79.76;100864.81;4997104;28;20021;-91
2023/06/26 02:13:16;;;;;;;7.75;5.32;;;;;;;21.19;79.16;100869.66;5013178;28;20068;-92
2023/06/26 02:15:42;;;;;;;6.25;4.47;;;;;;;21.26;78.48;100877.00;5013112;28;20033;-90
2023/06/26 02:18:07;;;;;;;5.35;4.15;;;;;;;21.18;78.51;100867.16;4996586;28;20069;-91
2023/06/26 02:20:33;;;;;;;6.07;3.17;;;;;;;21.17;78.55;100866.34;5013060;28;20026;-92
2023/06/26 02:22:58;;;;;;;4.45;3.45;;;;;;;21.16;79.19;100864.69;5012758;28;20030;-91
2023/06/26 02:25:24;;;;;;;5.22;3.60;;;;;;;21.10;79.23;100864.38;4996391;28;20026;-91
2023/06/26 02:27:49;;;;;;;4.28;3.05;;;;;;;21.10;79.27;100853.88;5012843;28;20045;-92
2023/06/26 02:30:15;;;;;;;8.55;3.42;;;;;;;21.06;79.10;100855.13;4996272;28;20533;-91
2023/06/26 02:32:40;;;;;;;6.55;3.25;;;;;;;21.14;79.30;100865.78;4996678;28;20020;-91
2023/06/26 02:35:06;;;;;;;3.95;2.97;;;;;;;21.16;78.68;100855.97;4996241;28;20479;-91
2023/06/26 02:37:32;;;;;;;4.88;3.28;;;;;;;21.10;79.67;100851.25;4996985;28;20056;-89
2023/06/26 02:39:57;;;;;;;5.68;2.85;;;;;;;21.22;78.07;100851.94;5013774;28;20375;-92
2023/06/26 02:42:23;;;;;;;4.30;3.13;;;;;;;21.20;78.74;100855.53;4996858;28;20029;-94
2023/06/26 02:44:48;;;;;;;4.25;3.20;;;;;;;21.20;79.06;100862.59;5013323;28;20026;-92
2023/06/26 02:47:14;;;;;;;4.40;3.05;;;;;;;21.28;79.49;100852.25;4996667;28;20037;-93
2023/06/26 02:49:39;;;;;;;4.20;3.20;;;;;;;21.27;78.48;100857.66;5012014;28;20026;-92
2023/06/26 02:52:05;;;;;;;5.97;3.10;;;;;;;21.27;79.29;100861.13;4996657;28;20472;-93
2023/06/26 02:54:30;;;;;;;3.95;2.83;;;;;;;21.34;77.88;100856.97;5013043;28;20091;-92
2023/06/26 02:56:56;;;;;;;5.75;3.45;;;;;;;21.41;77.96;100857.22;4996573;28;20018;-92
2023/06/26 02:59:21;;;;;;;5.22;3.25;;;;;;;21.48;77.73;100859.16;4996673;28;20511;-92
2023/06/26 03:01:47;;;;;;;5.53;3.45;;;;;;;21.54;77.36;100863.06;4996639;28;20068;-92
2023/06/26 03:04:12;;;;;;;4.68;3.08;;;;;;;21.59;77.29;100866.06;4996618;28;20483;-92
2023/06/26 03:06:38;;;;;;;5.90;3.17;;;;;;;21.70;77.15;100867.72;5012738;28;20399;-92
2023/06/26 03:09:03;;;;;;;4.97;3.05;;;;;;;21.65;77.72;100862.06;4996596;28;20120;-93
2023/06/26 03:11:28;;;;;;;4.57;2.92;;;;;;;21.67;77.22;100873.28;4996581;28;20053;-92
2023/06/26 03:13:54;;;;;;;5.47;3.10;;;;;;;21.75;76.53;100865.53;5012612;28;20033;-92
2023/06/26 03:16:19;;;;;;;4.45;3.13;;;;;;;21.76;75.80;100854.00;4996660;28;20022;-92
2023/06/26 03:18:45;;;;;;;7.05;3.53;;;;;;;22.01;74.99;100866.53;5012835;28;20382;-91
2023/06/26 03:21:10;;;;;;;5.38;3.35;;;;;;;22.18;74.22;100874.72;4996223;28;20024;-92
2023/06/26 03:23:36;;;;;;;5.10;3.28;;;;;;;22.01;74.31;100869.19;5012588;28;20030;-93
2023/06/26 03:26:01;;;;;;;4.80;3.15;;;;;;;22.04;74.61;100876.00;4996726;28;20022;-92
2023/06/26 03:28:27;;;;;;;5.60;3.38;;;;;;;21.98;74.39;100877.38;5012518;28;20022;-91
2023/06/26 03:30:52;;;;;;;5.63;3.33;;;;;;;21.88;75.54;100881.84;4990354;28;20054;-92
2023/06/26 03:33:18;;;;;;;4.70;3.20;;;;;;;21.85;75.80;100887.41;4976167;28;20535;-94
2023/06/26 03:35:43;;;;;;;6.40;3.47;;;;;;;21.81;75.75;100891.28;4976655;28;20018;-91
2023/06/26 03:38:09;;;;;;;4.35;3.33;;;;;;;21.79;75.50;100893.22;4977490;28;20034;-92
2023/06/26 03:40:35;;;;;;;8.13;3.50;;;;;;;21.69;75.53;100890.59;4976601;28;20026;-91
2023/06/26 03:43:00;;;;;;;5.20;3.33;;;;;;;21.63;75.66;100887.69;4975959;28;20034;-91
2023/06/26 03:45:25;;;;;;;6.13;3.22;;;;;;;21.61;76.35;100894.91;4976447;28;20018;-91
2023/06/26 03:47:51;;;;;;;4.45;3.55;;;;;;;21.52;76.58;100899.19;4975968;28;20483;-91
2023/06/26 03:50:16;;;;;;;5.05;3.42;;;;;;;21.46;77.58;100892.69;4976290;28;20468;-92
2023/06/26 03:52:42;;;;;;;6.32;3.33;;;;;;;21.51;76.97;100899.34;4975854;28;20026;-92
2023/06/26 03:55:08;;;;;;;4.55;3.53;;;;;;;21.46;77.12;100895.34;4975800;28;20392;-91
2023/06/26 03:57:33;;;;;;;5.75;3.38;;;;;;;21.40;77.48;100893.25;4976174;28;20105;-92
2023/06/26 03:59:58;;;;;;;6.70;3.30;;;;;;;21.38;77.78;100899.63;4985960;28;20034;-93
2023/06/26 04:02:24;;;;;;;3.75;3.22;;;;;;;21.35;77.57;100894.63;4991850;28;20030;-90
2023/06/26 04:04:49;;;;;;;9.43;4.03;;;;;;;21.30;78.30;100894.22;4991616;28;20030;-90
2023/06/26 04:07:15;;;;;;;4.28;3.10;;;;;;;21.34;77.99;100899.06;4992119;28;20026;-90
2023/06/26 04:09:40;;;;;;;5.22;4.05;;;;;;;21.40;77.93;100898.50;4977155;28;20057;-91
2023/06/26 04:12:06;;;;;;;5.57;3.33;;;;;;;21.38;78.04;100894.34;4975971;28;20046;-93
2023/06/26 04:14:32;;;;;;;5.85;3.70;;;;;;;21.35;78.67;100889.38;4991815;28;20106;-91
2023/06/26 04:16:58;;;;;;;4.60;3.50;;;;;;;21.42;77.54;100893.09;4981629;28;20030;-91
2023/06/26 04:19:23;;;;;;;4.35;3.22;;;;;;;21.50;77.40;100897.69;4989274;28;20050;-92
2023/06/26 04:21:49;;;;;;;18.45;5.15;;;;;;;21.54;77.75;100896.44;4994644;28;20056;-91
2023/06/26 04:24:14;;;;;;;10.00;4.07;;;;;;;21.57;77.33;100904.06;4991604;28;20092;-91
2023/06/26 04:26:41;;;;;;;4.85;3.50;;;;;;;21.56;77.39;100894.50;4992053;28;20463;-90
2023/06/26 04:29:07;;;;;;;7.28;3.42;;;;;;;21.63;76.70;100893.81;4992741;28;20022;-92
2023/06/26 04:31:32;;;;;;;4.70;3.30;;;;;;;21.75;76.02;100903.22;4974409;28;20050;-90
2023/06/26 04:34:00;;;;;;;3.92;3.35;;;;;;;21.80;75.89;100899.31;5001094;28;20026;-92
2023/06/26 04:36:28;;;;;;;6.28;4.55;;;;;;;21.81;76.14;100888.63;5107028;23;20049;-87
2023/06/26 04:38:58;;;;;;;5.75;3.97;;;;;;;21.90;75.85;100900.97;5051339;28;20060;-92
2023/06/26 04:41:24;;;;;;;5.95;3.83;;;;;;;21.96;75.43;100900.41;5033680;28;20056;-91
2023/06/26 04:43:50;;;;;;;5.45;4.22;;;;;;;21.91;75.35;100897.34;5017504;28;20083;-87
2023/06/26 04:46:15;;;;;;;8.70;4.25;;;;;;;21.99;75.15;100894.84;5028680;28;20478;-88
2023/06/26 04:48:41;;;;;;;22.08;14.60;;;;;;;22.06;75.87;100897.75;5029832;28;20033;-89
2023/06/26 04:51:06;;;;;;;11.15;7.93;;;;;;;22.12;75.58;100899.00;5030212;28;20025;-91
2023/06/26 04:53:32;;;;;;;14.25;9.85;;;;;;;22.19;75.08;100890.38;5032639;28;20025;-89
2023/06/26 04:55:57;;;;;;;6.70;4.43;;;;;;;22.05;74.79;100853.94;5019880;28;20060;-86
2023/06/26 04:58:23;;;;;;;5.43;3.72;;;;;;;22.32;73.62;100896.19;5033664;28;20028;-92
2023/06/26 05:00:48;;;;;;;4.72;3.67;;;;;;;22.29;74.04;100885.06;5030296;28;20049;-91
2023/06/26 05:03:16;;;;;;;4.38;3.42;;;;;;;22.30;72.64;100873.56;5026406;28;20433;-88
2023/06/26 05:05:42;;;;;;;6.82;3.80;;;;;;;22.48;72.99;100900.81;5032658;28;20067;-88
2023/06/26 05:08:18;;;;;;;5.63;3.85;;;;;;;22.49;72.35;100897.19;5032010;28;20033;-93
2023/06/26 05:10:43;;;;;;;4.75;3.60;;;;;;;22.60;73.41;100898.81;5032151;28;20071;-93
2023/06/26 05:13:09;;;;;;;5.22;3.58;;;;;;;22.68;72.73;100906.00;5048993;28;20025;-88
2023/06/26 05:15:34;;;;;;;5.43;3.38;;;;;;;22.68;72.52;100906.81;5035617;28;20029;-88
2023/06/26 05:18:00;;;;;;;5.00;3.08;;;;;;;22.72;70.24;100902.13;5035487;28;20025;-88
2023/06/26 05:20:25;;;;;;;4.35;3.20;;;;;;;22.72;70.08;100902.13;5051303;28;20037;-86
2023/06/26 05:22:51;;;;;;;4.85;3.30;;;;;;;22.77;70.15;100894.56;5024042;28;20102;-90
2023/06/26 05:25:16;;;;;;;7.28;4.68;;;;;;;22.80;70.69;100886.34;5035459;28;20028;-88
2023/06/26 05:27:42;;;;;;;4.78;3.85;;;;;;;22.97;69.83;100906.69;5034938;28;20032;-88
2023/06/26 05:30:08;;;;;;;5.35;3.95;;;;;;;23.02;70.04;100904.47;5011027;28;20588;-88
2023/06/26 05:32:34;;;;;;;4.75;3.58;;;;;;;23.03;69.83;100895.56;5034070;28;20028;-88
2023/06/26 05:35:00;;;;;;;9.32;6.75;;;;;;;23.15;71.22;100917.28;5042508;28;20078;-92
2023/06/26 05:37:25;;;;;;;11.38;7.03;;;;;;;23.28;69.37;100914.28;5033587;28;20053;-93
2023/06/26 05:39:51;;;;;;;5.28;3.72;;;;;;;23.24;67.39;100905.00;5027225;28;20033;-89
2023/06/26 05:42:17;;;;;;;5.82;3.53;;;;;;;23.45;69.50;100916.09;5035425;28;20033;-92
2023/06/26 05:44:42;;;;;;;5.93;4.28;;;;;;;23.62;68.93;100922.38;5036362;28;20029;-91
2023/06/26 05:47:08;;;;;;;4.65;3.20;;;;;;;23.73;65.14;100924.78;5027090;28;20024;-93
2023/06/26 05:49:33;;;;;;;6.45;3.72;;;;;;;23.69;65.44;100924.25;5022810;28;20035;-92
2023/06/26 05:51:59;;;;;;;4.50;3.20;;;;;;;23.67;64.32;100909.53;5038809;28;20089;-90
2023/06/26 05:54:25;;;;;;;5.97;2.85;;;;;;;23.65;65.37;100917.63;5038111;28;20069;-90
2023/06/26 05:56:52;;;;;;;6.43;4.50;;;;;;;23.65;65.25;100914.16;5046760;28;20433;-93
2023/06/26 05:59:18;;;;;;;6.43;2.67;;;;;;;23.76;64.35;100921.81;5021663;28;20061;-89
2023/06/26 06:01:43;;;;;;;3.88;2.72;;;;;;;23.82;64.98;100923.88;5031023;28;20061;-93
2023/06/26 06:04:09;;;;;;;6.68;3.55;;;;;;;23.92;65.98;100919.31;5034058;28;20486;-89
2023/06/26 06:06:34;;;;;;;15.27;5.32;;;;;;;24.15;64.03;100924.09;5024994;28;20104;-89
2023/06/26 06:09:00;;;;;;;4.65;3.22;;;;;;;24.19;64.23;100926.28;5032452;28;20040;-86
2023/06/26 06:11:25;;;;;;;6.72;3.47;;;;;;;24.09;63.80;100912.34;5035709;28;20017;-88
2023/06/26 06:13:50;;;;;;;3.97;2.92;;;;;;;24.00;61.94;100910.63;5034009;28;20509;-89
2023/06/26 06:16:16;;;;;;;4.05;2.92;;;;;;;24.19;63.19;100934.22;5036741;28;20029;-90
2023/06/26 06:18:41;;;;;;;6.05;2.78;;;;;;;24.34;61.50;100934.47;5035973;28;20116;-93
2023/06/26 06:21:07;;;;;;;5.53;3.47;;;;;;;24.33;63.11;100932.81;5040303;28;20024;-87
2023/06/26 06:23:32;;;;;;;6.78;2.90;;;;;;;24.42;62.12;100929.25;5038860;28;20395;-88
2023/06/26 06:25:58;;;;;;;3.92;2.30;;;;;;;24.42;62.25;100920.47;5018478;28;20032;-89
2023/06/26 06:28:23;;;;;;;3.35;2.58;;;;;;;24.44;61.88;100923.78;5022430;28;20040;-86
2023/06/26 06:30:49;;;;;;;6.32;2.58;;;;;;;24.41;61.44;100921.47;5016030;28;20060;-90
2023/06/26 06:33:14;;;;;;;5.85;3.25;;;;;;;24.41;62.31;100924.94;5033401;28;20048;-88
2023/06/26 06:35:39;;;;;;;3.45;2.53;;;;;;;24.41;62.07;100922.28;5051409;28;20032;-92
2023/06/26 06:38:05;;;;;;;7.55;5.18;;;;;;;24.44;61.47;100910.56;5026627;28;20491;-89
2023/06/26 06:40:30;;;;;;;4.75;3.00;;;;;;;24.41;61.65;100895.84;5021229;28;20039;-92
2023/06/26 06:42:56;;;;;;;4.47;2.90;;;;;;;24.67;61.38;100918.75;5052315;28;20494;-92
2023/06/26 06:45:21;;;;;;;14.73;10.20;;;;;;;24.64;61.63;100917.25;5035725;28;20043;-91
2023/06/26 06:47:47;;;;;;;5.47;3.15;;;;;;;24.63;62.37;100910.31;5036751;28;20901;-91
2023/06/26 06:50:13;;;;;;;3.67;2.65;;;;;;;24.77;60.52;100908.88;5034062;28;20032;-90
2023/06/26 06:52:40;;;;;;;3.63;2.50;;;;;;;24.77;61.60;100912.34;5021881;28;20053;-93
2023/06/26 06:55:08;;;;;;;3.63;2.45;;;;;;;24.80;60.90;100906.75;5051351;28;20028;-91
2023/06/26 06:57:38;;;;;;;5.10;2.78;;;;;;;25.01;61.40;100910.78;5065841;23;20053;-93
2023/06/26 07:00:05;;;;;;;4.82;3.03;;;;;;;25.09;61.22;100911.66;5054529;28;20021;-92
2023/06/26 07:02:30;;;;;;;4.35;3.17;;;;;;;25.07;60.67;100907.50;5072872;28;20409;-91
2023/06/26 07:04:56;;;;;;;4.15;2.75;;;;;;;25.19;60.99;100927.41;5056933;28;20032;-91
2023/06/26 07:07:21;;;;;;;3.67;2.70;;;;;;;25.10;59.79;100909.84;5037962;28;20167;-91
2023/06/26 07:09:46;;;;;;;4.18;2.60;;;;;;;24.99;59.11;100899.53;5034148;28;20049;-90
2023/06/26 07:12:12;;;;;;;4.45;2.92;;;;;;;25.20;59.93;100925.56;5051331;28;20506;-87
2023/06/26 07:14:38;;;;;;;3.92;2.65;;;;;;;25.20;59.85;100921.09;5032192;28;20037;-91
2023/06/26 07:17:04;;;;;;;3.70;2.63;;;;;;;25.22;60.55;100924.41;5035688;28;20450;-90
2023/06/26 07:19:29;;;;;;;7.55;2.70;;;;;;;25.25;58.90;100913.50;5038093;28;20090;-89
2023/06/26 07:21:55;;;;;;;3.17;2.05;;;;;;;25.26;58.55;100924.91;5044461;28;20033;-92
2023/06/26 07:24:20;;;;;;;4.32;2.50;;;;;;;25.24;60.69;100911.84;5024949;28;20473;-89
2023/06/26 07:26:46;;;;;;;3.38;2.38;;;;;;;25.40;60.04;100908.38;5032695;28;20060;-88
2023/06/26 07:29:11;;;;;;;4.88;2.60;;;;;;;25.66;59.52;100919.66;5057904;28;20024;-93
2023/06/26 07:31:36;;;;;;;6.05;2.90;;;;;;;25.62;58.21;100925.44;5020208;28;20498;-89
2023/06/26 07:34:02;;;;;;;6.93;2.72;;;;;;;25.66;57.28;100916.16;5037568;28;20032;-92
2023/06/26 07:36:27;;;;;;;3.35;2.30;;;;;;;25.80;57.59;100926.13;5056352;28;20024;-92
2023/06/26 07:38:53;;;;;;;4.35;2.90;;;;;;;25.79;57.13;100921.84;5053530;28;20055;-92
2023/06/26 07:41:18;;;;;;;7.63;2.40;;;;;;;25.86;57.34;100921.97;5057374;28;20036;-90
2023/06/26 07:43:44;;;;;;;3.17;2.15;;;;;;;25.98;57.37;100915.34;5057144;28;20029;-90
2023/06/26 07:46:09;;;;;;;4.82;2.30;;;;;;;26.05;57.08;100929.56;5034702;28;20023;-86
2023/06/26 07:48:35;;;;;;;4.47;2.40;;;;;;;26.02;55.82;100937.88;5051862;28;20039;-90
2023/06/26 07:51:00;;;;;;;3.25;2.20;;;;;;;25.98;55.90;100926.78;5061493;28;20031;-88
2023/06/26 07:53:25;;;;;;;3.60;2.30;;;;;;;26.06;57.42;100927.78;5043635;28;20521;-89
2023/06/26 07:55:51;;;;;;;5.18;2.25;;;;;;;26.23;56.11;100926.72;5061918;28;20033;-90
2023/06/26 07:58:16;;;;;;;3.95;2.60;;;;;;;26.12;56.60;100912.00;5035855;28;20048;-89
2023/06/26 08:00:42;;;;;;;3.28;1.92;;;;;;;26.13;55.94;100915.47;5032092;28;20033;-89
2023/06/26 08:03:07;;;;;;;3.60;2.60;;;;;;;26.23;55.25;100930.19;5026666;28;20497;-87
2023/06/26 08:05:33;;;;;;;2.85;2.00;;;;;;;26.35;55.25;100920.09;5082037;28;20029;-89
2023/06/26 08:08:00;;;;;;;6.68;2.40;;;;;;;26.29;55.10;100921.59;5045160;28;20028;-85
2023/06/26 08:10:25;;;;;;;3.83;2.17;;;;;;;26.21;54.94;100915.47;5026005;28;20050;-87
2023/06/26 08:12:52;;;;;;;4.47;2.65;;;;;;;26.27;55.05;100928.88;5051563;28;20028;-86
2023/06/26 08:15:18;;;;;;;7.10;2.42;;;;;;;26.16;55.89;100929.25;5035660;28;20036;-91
2023/06/26 08:17:43;;;;;;;3.92;2.50;;;;;;;26.07;56.44;100929.44;5061799;28;20032;-89
2023/06/26 08:20:09;;;;;;;4.07;2.38;;;;;;;26.12;56.27;100913.81;5051137;28;20036;-88
2023/06/26 08:22:35;;;;;;;8.88;7.28;;;;;;;26.35;55.29;100930.69;5051708;28;20506;-93
2023/06/26 08:25:01;;;;;;;13.30;10.02;;;;;;;26.45;55.85;100926.06;5030156;28;20039;-89
2023/06/26 08:27:26;;;;;;;3.83;2.83;;;;;;;26.68;55.86;100925.28;5050791;28;20025;-90
2023/06/26 08:29:52;;;;;;;3.45;2.13;;;;;;;26.95;53.95;100908.06;5029704;28;20067;-87
2023/06/26 08:32:17;;;;;;;3.20;2.22;;;;;;;27.06;53.45;100929.78;5055099;28;20481;-90
2023/06/26 08:34:43;;;;;;;2.88;1.98;;;;;;;26.77;53.92;100929.56;5049699;28;20037;-89
2023/06/26 08:37:09;;;;;;;6.55;2.30;;;;;;;26.64;54.95;100930.09;5055917;28;20024;-92
2023/06/26 08:52:58;;;;;;;3.28;2.20;;;;;;;26.92;53.61;100924.34;5040310;28;20429;-93
2023/06/26 08:55:24;;;;;;;3.70;2.22;;;;;;;26.86;53.59;100925.88;5008614;28;20044;-93
2023/06/26 08:57:51;;;;;;;3.88;1.90;;;;;;;26.91;53.77;100928.00;5028152;28;20033;-90
2023/06/26 09:00:17;;;;;;;3.05;2.10;;;;;;;27.00;54.31;100922.47;5017393;28;20033;-92
2023/06/26 09:02:43;;;;;;;3.22;1.98;;;;;;;27.13;53.00;100911.28;5031350;28;20061;-94
2023/06/26 09:05:08;;;;;;;3.42;2.03;;;;;;;27.20;52.63;100924.69;5014252;28;20040;-91
2023/06/26 09:07:34;;;;;;;3.55;2.13;;;;;;;27.57;52.29;100926.59;5016135;28;20029;-93
2023/06/26 09:09:59;;;;;;;2.90;2.25;;;;;;;27.69;51.50;100919.88;5008837;28;20038;-92
2023/06/26 09:12:26;;;;;;;3.25;2.28;;;;;;;27.63;50.05;100918.75;4990723;28;20037;-92
2023/06/26 09:14:52;;;;;;;3.40;2.05;;;;;;;27.52;50.45;100928.94;4990730;28;20026;-93
2023/06/26 09:17:18;;;;;;;2.78;2.05;;;;;;;27.43;50.01;100925.53;4991505;28;20084;-91
2023/06/26 09:19:46;;;;;;;5.57;2.80;;;;;;;27.30;51.57;100919.97;4992014;28;20030;-92
2023/06/26 09:22:12;;;;;;;6.20;3.20;;;;;;;27.41;52.20;100922.22;4984880;28;20033;-91
2023/06/26 09:24:37;;;;;;;5.50;2.60;;;;;;;27.55;51.49;100926.78;5006002;28;20030;-89
2023/06/26 09:27:03;;;;;;;3.47;2.00;;;;;;;27.40;50.11;100907.28;4990857;28;20050;-96
2023/06/26 09:29:29;;;;;;;2.70;1.70;;;;;;;27.40;50.17;100902.81;5001210;28;20026;-92
2023/06/26 09:31:56;;;;;;;2.85;1.95;;;;;;;27.35;50.34;100910.50;5025086;28;20038;-92
2023/06/26 09:34:21;;;;;;;3.47;2.03;;;;;;;27.43;49.83;100917.56;5030240;28;20029;-94
2023/06/26 09:36:48;;;;;;;2.55;1.52;;;;;;;27.42;49.46;100897.31;4994803;28;20487;-90
2023/06/26 09:39:15;;;;;;;4.13;2.10;;;;;;;27.67;49.52;100909.44;5020012;28;20112;-92
2023/06/26 09:41:44;;;;;;;3.50;2.25;;;;;;;27.63;49.55;100907.25;4983060;28;20506;-92
2023/06/26 09:44:11;;;;;;;3.78;2.20;;;;;;;27.68;50.97;100921.72;4995397;28;20029;-94
2023/06/26 09:46:37;;;;;;;2.33;1.63;;;;;;;27.51;50.19;100920.16;4990510;28;20032;-90
2023/06/26 09:49:06;;;;;;;7.85;2.15;;;;;;;27.42;51.24;100907.94;5009833;28;20480;-88
2023/06/26 09:51:32;;;;;;;4.75;2.72;;;;;;;27.54;50.03;100911.03;5026417;28;20137;-93
2023/06/26 09:54:01;;;;;;;4.18;2.05;;;;;;;27.39;49.16;100913.59;5007005;28;20495;-92
2023/06/26 09:56:27;;;;;;;2.95;1.73;;;;;;;27.30;50.20;100907.53;5004246;28;20018;-93
2023/06/26 09:58:55;;;;;;;3.42;2.08;;;;;;;27.34;50.77;100905.38;4993141;28;20084;-93
2023/06/26 10:01:20;;;;;;;4.85;3.25;;;;;;;27.44;51.00;100900.63;4995308;28;20030;-91
2023/06/26 10:03:46;;;;;;;3.25;2.03;;;;;;;27.80;50.74;100900.00;5002372;28;20511;-87
2023/06/26 10:06:12;;;;;;;3.83;2.05;;;;;;;27.91;49.00;100891.59;4993397;28;20081;-87
2023/06/26 10:08:38;;;;;;;3.20;2.00;;;;;;;28.13;49.57;100887.22;4993298;28;20084;-90
2023/06/26 10:11:03;;;;;;;5.75;2.15;;;;;;;28.42;47.03;100892.56;4987303;28;20077;-92
2023/06/26 10:13:31;;;;;;;5.93;3.90;;;;;;;28.57;47.38;100890.69;4977074;28;20042;-93
2023/06/26 10:15:57;;;;;;;3.15;1.90;;;;;;;28.77;47.00;100888.28;4994480;28;20427;-92
2023/06/26 10:18:24;;;;;;;2.95;1.90;;;;;;;28.81;46.37;100886.91;5000625;28;20452;-95
2023/06/26 10:20:49;;;;;;;5.55;2.10;;;;;;;29.01;45.70;100881.00;4980326;28;20030;-96
2023/06/26 10:23:15;;;;;;;2.72;1.85;;;;;;;29.14;44.85;100871.28;4974444;28;20045;-89
2023/06/26 10:25:41;;;;;;;2.65;1.83;;;;;;;29.33;44.88;100880.47;5004697;28;20030;-91
2023/06/26 10:28:06;;;;;;;2.42;1.80;;;;;;;29.05;45.59;100872.41;4994028;28;20040;-89
2023/06/26 10:30:33;;;;;;;2.38;1.83;;;;;;;29.33;44.68;100891.13;4991852;28;20034;-92
2023/06/26 10:32:59;;;;;;;4.20;2.20;;;;;;;29.48;43.07;100888.41;4996966;28;20036;-92
2023/06/26 10:35:25;;;;;;;4.03;2.42;;;;;;;29.64;42.79;100871.31;4986306;28;20038;-90
2023/06/26 10:37:51;;;;;;;4.10;2.00;;;;;;;29.47;45.01;100864.59;4983196;28;20038;-89
2023/06/26 10:40:27;;;;;;;5.60;1.80;;;;;;;29.33;44.54;100864.50;5006498;28;20763;-92
2023/06/26 10:43:06;;;;;;;4.50;2.17;;;;;;;29.18;46.23;100876.22;5006153;28;20037;-90
2023/06/26 10:45:31;;;;;;;2.60;1.88;;;;;;;28.93;45.51;100865.13;4994291;28;20069;-87
2023/06/26 10:47:56;;;;;;;3.60;2.17;;;;;;;28.86;44.93;100873.84;4990313;28;20039;-88
2023/06/26 10:50:30;;;;;;;3.60;2.17;;;;;;;28.76;45.72;100867.16;4989980;28;20034;-90
2023/06/26 10:53:05;;;;;;;3.78;1.92;;;;;;;28.74;45.47;100863.88;4981091;28;20081;-88
2023/06/26 10:55:30;;;;;;;3.72;2.20;;;;;;;29.05;45.10;100855.63;5009900;28;20030;-91
2023/06/26 10:57:55;;;;;;;2.80;2.15;;;;;;;29.21;44.96;100855.38;5004948;28;20496;-88
2023/06/26 11:00:21;;;;;;;4.25;2.22;;;;;;;29.17;45.98;100870.06;5010921;28;20041;-95
2023/06/26 11:02:53;;;;;;;5.32;2.45;;;;;;;28.93;45.97;100862.47;4994166;28;20033;-89
2023/06/26 11:05:29;;;;;;;3.45;2.28;;;;;;;28.84;46.57;100864.38;4985119;28;20057;-92
2023/06/26 11:08:08;;;;;;;5.28;3.33;;;;;;;28.52;47.71;100833.72;5003628;28;20117;-89
2023/06/26 11:11:01;;;;;;;3.78;2.38;;;;;;;28.41;48.43;100864.28;5010804;28;20112;-89
2023/06/26 11:13:26;;;;;;;5.22;2.50;;;;;;;28.56;48.94;100861.59;5021217;28;20056;-91
2023/06/26 11:15:52;;;;;;;3.28;2.30;;;;;;;28.98;47.23;100868.84;4991868;28;20492;-95
2023/06/26 11:18:17;;;;;;;2.92;2.10;;;;;;;29.32;44.63;100860.19;4985989;28;20041;-89
2023/06/26 11:20:43;;;;;;;2.90;1.92;;;;;;;29.46;44.40;100844.28;4981271;28;20026;-92
2023/06/26 11:23:08;;;;;;;2.97;1.75;;;;;;;29.89;42.81;100840.53;5011582;28;20036;-93
2023/06/26 11:25:35;;;;;;;3.15;2.30;;;;;;;29.85;42.61;100841.94;4989842;28;20038;-94
2023/06/26 11:28:00;;;;;;;3.33;2.10;;;;;;;29.81;42.44;100851.34;4983165;28;20068;-88
2023/06/26 11:30:26;;;;;;;3.15;2.03;;;;;;;29.39;45.04;100837.06;4993923;28;20033;-94
2023/06/26 11:32:52;;;;;;;3.80;2.53;;;;;;;29.15;44.57;100824.16;4976753;28;20079;-89